New Orleans Nas Jrb,Alvin Callender Field, Airport New Orleans US
ICAO: KNBG
IATA: NBG
Category: Medium
Scheduled Services: No

Elevation: 2 ft
TransAlt. 18000 ft.

Airport Communications:
APP/DEP:123.85
ATIS:27.62
NAVY NEW ORLEANS GND:121.6
USCG NEW ORLEANS AIR:38.18
BASE OPS:37.915
PMSV METRO:26.58
NAVY NEW ORLEANS TWR:123.8

KNBG Zoom In..

Runways:

(A) RW 04 length 10000 ft width 200 ft
ILS 109.50 / hdg 44

(B) RW 14 length 6000 ft width 200 ft
---- / hdg 141

(C) RW 22 length 10000 ft width 200 ft
---- / hdg 224

(D) RW 32 length 6000 ft width 200 ft
---- / hdg 321

Location; KNBG
Day. 25 / Time. 11.55 Zulu
* Altimeter: 30.05
* Temperature: 13° c. 55.4°f.
* Wind from: 000° Speed 00 kn.
Dewpoint: 13° c.
Visibility: 6 Statute Miles.
Clouds: Scattered 25000 ft.
Conditions: Mist.

KNBG 251155Z 00000KT 6SM BR SCT250 13/13 A3005 RMK AO2 SLP176 T01280128 10144 20122 51009 $


Wind - Calm.

  YouTube Music Video
 
jpsmedia.com for Web Design  worldairports.se 2018   terms of use